createdAt,value
2022-07-29T00:02:05.111Z,19.18
2022-07-29T00:04:39.721Z,19.03
2022-07-29T00:07:15.199Z,18.71
2022-07-29T00:09:51.753Z,18.79
2022-07-29T00:12:29.770Z,19.08
2022-07-29T00:15:06.077Z,18.85
2022-07-29T00:17:40.071Z,18.62
2022-07-29T00:20:10.596Z,18.65
2022-07-29T00:22:45.868Z,18.38
2022-07-29T00:25:24.730Z,18.08
2022-07-29T00:27:55.508Z,18.18
2022-07-29T00:30:32.852Z,18.59
2022-07-29T00:33:09.087Z,18.59
2022-07-29T00:35:54.328Z,18.43
2022-07-29T00:38:29.088Z,18.11
2022-07-29T00:40:57.783Z,18.41
2022-07-29T00:43:27.220Z,18.21
2022-07-29T00:45:57.346Z,18.11
2022-07-29T00:48:37.752Z,17.99
2022-07-29T00:51:10.503Z,18.09
2022-07-29T00:53:44.143Z,18.08
2022-07-29T00:56:15.007Z,17.53
2022-07-29T00:58:44.137Z,17.79
2022-07-29T01:04:07.132Z,17.69
2022-07-29T01:06:41.299Z,17.48
2022-07-29T01:09:15.982Z,17.34
2022-07-29T01:12:11.755Z,17.39
2022-07-29T01:14:48.268Z,17.47
2022-07-29T01:17:52.402Z,17.64
2022-07-29T01:21:03.902Z,18.04
2022-07-29T01:23:53.484Z,18.22
2022-07-29T01:26:45.752Z,17.79
2022-07-29T01:29:40.388Z,17.67
2022-07-29T01:32:28.275Z,18.19
2022-07-29T01:35:39.209Z,18.08
2022-07-29T01:38:28.293Z,18.01
2022-07-29T01:41:13.297Z,18.17
2022-07-29T01:44:16.532Z,17.84
2022-07-29T01:47:06.700Z,18.15
2022-07-29T01:49:46.052Z,17.75
2022-07-29T01:52:29.988Z,17.72
2022-07-29T01:55:08.952Z,17.71
2022-07-29T01:57:50.783Z,17.34
2022-07-29T02:00:26.891Z,17.33
2022-07-29T02:03:01.628Z,17.63
2022-07-29T02:05:41.989Z,17.89
2022-07-29T02:08:13.977Z,17.79
2022-07-29T02:10:53.015Z,17.58
2022-07-29T02:13:28.034Z,17.53
2022-07-29T02:16:01.013Z,17.56
2022-07-29T02:18:36.702Z,17.39
2022-07-29T02:21:15.097Z,17.36
2022-07-29T02:23:51.587Z,17.36
2022-07-29T02:26:33.214Z,17.28
2022-07-29T02:29:10.331Z,17.17
2022-07-29T02:31:48.340Z,17.26
2022-07-29T02:34:29.764Z,17.40
2022-07-29T02:37:09.565Z,17.15
2022-07-29T02:39:45.810Z,17.33
2022-07-29T02:42:18.500Z,17.41
2022-07-29T02:44:52.655Z,17.10
2022-07-29T02:47:41.444Z,16.81
2022-07-29T02:50:43.667Z,17.26
2022-07-29T02:53:19.059Z,17.29
2022-07-29T02:56:01.583Z,17.28
2022-07-29T02:58:49.844Z,17.13
2022-07-29T03:01:41.496Z,17.29
2022-07-29T03:04:29.111Z,17.48
2022-07-29T03:07:08.798Z,17.40
2022-07-29T03:09:41.276Z,17.50
2022-07-29T03:12:12.695Z,17.04
2022-07-29T03:14:51.983Z,16.93
2022-07-29T03:17:23.787Z,17.21
2022-07-29T03:19:59.290Z,17.23
2022-07-29T03:22:29.586Z,17.01
2022-07-29T03:25:13.231Z,16.96
2022-07-29T03:27:41.597Z,17.06
2022-07-29T03:30:21.546Z,17.18
2022-07-29T03:32:53.332Z,17.19
2022-07-29T03:35:33.949Z,17.05
2022-07-29T03:38:04.615Z,17.18
2022-07-29T03:41:23.697Z,16.92
2022-07-29T03:43:54.494Z,16.97
2022-07-29T03:46:34.565Z,16.47
2022-07-29T03:49:09.284Z,16.73
2022-07-29T03:51:51.712Z,16.89
2022-07-29T03:54:22.194Z,16.69
2022-07-29T03:56:57.741Z,16.77
2022-07-29T03:59:34.143Z,16.63
2022-07-29T04:02:11.736Z,16.73
2022-07-29T04:04:43.076Z,16.37
2022-07-29T04:07:39.342Z,16.45
2022-07-29T04:10:13.063Z,16.50
2022-07-29T04:12:43.881Z,16.45
2022-07-29T04:15:15.461Z,16.66
2022-07-29T04:17:46.869Z,16.69
2022-07-29T04:20:22.424Z,17.04
2022-07-29T04:23:06.722Z,17.03
2022-07-29T04:25:47.678Z,17.27
2022-07-29T04:28:19.314Z,17.36
2022-07-29T04:30:50.088Z,17.28
2022-07-29T04:33:24.969Z,17.46
2022-07-29T04:35:55.740Z,17.53
2022-07-29T04:38:32.198Z,17.56
2022-07-29T04:41:11.150Z,17.66
2022-07-29T04:43:56.071Z,17.72
2022-07-29T04:46:42.014Z,17.51
2022-07-29T04:49:15.754Z,17.43
2022-07-29T04:51:51.710Z,17.44
2022-07-29T04:54:30.632Z,17.57
2022-07-29T04:57:10.728Z,17.80
2022-07-29T04:59:45.557Z,17.94
2022-07-29T05:02:20.532Z,18.02
2022-07-29T05:04:51.082Z,18.17
2022-07-29T05:07:22.530Z,18.35
2022-07-29T05:09:54.828Z,18.44
2022-07-29T05:12:29.289Z,18.50
2022-07-29T05:15:01.799Z,18.69
2022-07-29T05:17:33.248Z,18.68
2022-07-29T05:20:02.857Z,18.91
2022-07-29T05:22:47.905Z,19.18
2022-07-29T05:25:43.091Z,19.18
2022-07-29T05:28:18.203Z,19.15
2022-07-29T05:30:50.723Z,19.25
2022-07-29T05:33:34.969Z,19.44
2022-07-29T05:36:23.883Z,19.62
2022-07-29T05:39:01.230Z,19.66
2022-07-29T05:41:42.282Z,19.76
2022-07-29T05:44:27.426Z,19.65
2022-07-29T05:47:07.746Z,19.69
2022-07-29T05:49:44.414Z,19.72
2022-07-29T05:52:16.179Z,19.84
2022-07-29T05:54:52.913Z,19.78
2022-07-29T05:57:36.039Z,19.76
2022-07-29T06:00:12.941Z,19.92
2022-07-29T06:02:44.160Z,19.99
2022-07-29T06:05:15.606Z,20.05
2022-07-29T06:07:50.892Z,20.00
2022-07-29T06:10:26.931Z,19.91
2022-07-29T06:12:59.567Z,19.97
2022-07-29T06:15:33.303Z,19.87
2022-07-29T06:18:15.129Z,19.99
2022-07-29T06:20:53.450Z,20.21
2022-07-29T06:23:26.343Z,20.41
2022-07-29T06:25:54.374Z,20.59
2022-07-29T06:28:35.848Z,20.70
2022-07-29T06:31:16.314Z,20.75
2022-07-29T06:33:48.199Z,20.45
2022-07-29T06:36:25.674Z,20.65
2022-07-29T06:38:59.885Z,21.07
2022-07-29T06:41:45.278Z,21.37
2022-07-29T06:44:19.193Z,21.27
2022-07-29T06:47:03.737Z,21.41
2022-07-29T06:49:34.220Z,21.52
2022-07-29T06:52:03.714Z,21.57
2022-07-29T06:54:52.148Z,21.60
2022-07-29T06:57:36.054Z,21.79
2022-07-29T07:00:06.572Z,21.72
2022-07-29T07:02:38.598Z,21.94
2022-07-29T07:05:16.980Z,22.00
2022-07-29T07:07:47.806Z,22.17
2022-07-29T07:10:24.189Z,22.44
2022-07-29T07:12:54.979Z,22.37
2022-07-29T07:15:39.385Z,22.47
2022-07-29T07:18:12.043Z,22.54
2022-07-29T07:20:46.406Z,22.73
2022-07-29T07:23:23.943Z,22.66
2022-07-29T07:25:59.617Z,22.82
2022-07-29T07:28:43.222Z,22.96
2022-07-29T07:31:16.605Z,23.02
2022-07-29T07:33:45.238Z,23.18
2022-07-29T07:36:24.022Z,23.26
2022-07-29T07:38:59.950Z,23.70
2022-07-29T07:41:32.578Z,23.59
2022-07-29T07:44:15.870Z,23.77
2022-07-29T07:47:03.737Z,23.97
2022-07-29T07:49:53.564Z,24.25
2022-07-29T07:52:35.093Z,24.35
2022-07-29T07:55:05.914Z,24.39
2022-07-29T07:57:37.670Z,24.45
2022-07-29T08:00:09.826Z,24.47
2022-07-29T08:03:00.793Z,24.40
2022-07-29T08:05:34.050Z,24.65
2022-07-29T08:08:06.159Z,24.55
2022-07-29T08:10:55.374Z,24.54
2022-07-29T08:13:41.349Z,24.86
2022-07-29T08:16:17.262Z,24.91
2022-07-29T08:18:51.838Z,25.08
2022-07-29T08:21:23.876Z,25.27
2022-07-29T08:24:18.282Z,25.36
2022-07-29T08:26:51.002Z,25.54
2022-07-29T08:29:21.327Z,25.74
2022-07-29T08:31:54.965Z,25.82
2022-07-29T08:34:28.108Z,26.00
2022-07-29T08:37:06.817Z,26.04
2022-07-29T08:39:40.671Z,26.26
2022-07-29T08:42:13.720Z,26.33
2022-07-29T08:44:49.051Z,26.43
2022-07-29T08:47:25.376Z,26.32
2022-07-29T08:49:57.495Z,26.61
2022-07-29T08:52:35.633Z,26.70
2022-07-29T08:55:11.046Z,27.03
2022-07-29T08:57:54.407Z,26.87
2022-07-29T09:00:29.612Z,26.74
2022-07-29T09:03:04.544Z,26.54
2022-07-29T09:05:47.972Z,26.79
2022-07-29T09:08:18.665Z,26.94
2022-07-29T09:10:50.454Z,27.13
2022-07-29T09:13:21.148Z,27.45
2022-07-29T09:15:53.704Z,27.70
2022-07-29T09:18:52.708Z,27.95
2022-07-29T09:21:43.757Z,27.84
2022-07-29T09:24:25.485Z,27.82
2022-07-29T09:27:10.957Z,28.10
2022-07-29T09:29:42.057Z,28.13
2022-07-29T09:32:19.239Z,28.21
2022-07-29T09:34:59.484Z,28.33
2022-07-29T09:37:33.562Z,28.48
2022-07-29T09:40:07.859Z,28.92
2022-07-29T09:42:53.017Z,28.70
2022-07-29T09:45:41.547Z,28.48
2022-07-29T09:48:30.197Z,29.08
2022-07-29T09:51:18.312Z,29.05
2022-07-29T09:53:53.065Z,29.22
2022-07-29T09:59:34.930Z,29.33
2022-07-29T10:02:21.998Z,29.48
2022-07-29T10:04:59.410Z,29.54
2022-07-29T10:08:06.658Z,29.69
2022-07-29T10:10:38.944Z,30.00
2022-07-29T10:13:20.214Z,30.35
2022-07-29T10:15:51.867Z,30.59
2022-07-29T10:18:33.421Z,30.31
2022-07-29T10:21:35.046Z,30.33
2022-07-29T10:24:19.914Z,30.67
2022-07-29T10:26:59.028Z,30.81
2022-07-29T10:29:33.066Z,30.94
2022-07-29T10:32:57.159Z,31.17
2022-07-29T10:36:11.485Z,31.65
2022-07-29T10:39:15.572Z,31.45
2022-07-29T10:42:16.903Z,31.51
2022-07-29T10:44:49.242Z,31.53
2022-07-29T10:47:36.116Z,31.63
2022-07-29T10:50:21.734Z,31.56
2022-07-29T10:53:00.989Z,31.86
2022-07-29T10:55:55.425Z,32.50
2022-07-29T10:58:35.935Z,32.17
2022-07-29T11:01:39.217Z,32.47
2022-07-29T11:04:10.248Z,32.35
2022-07-29T11:07:45.648Z,32.20
2022-07-29T11:10:20.501Z,31.84
2022-07-29T11:13:08.547Z,32.38
2022-07-29T11:16:01.212Z,32.79
2022-07-29T11:18:34.910Z,32.74
2022-07-29T11:21:05.845Z,32.89
2022-07-29T11:23:42.796Z,32.40
2022-07-29T11:26:31.497Z,32.72
2022-07-29T11:29:24.178Z,32.48
2022-07-29T11:32:00.162Z,32.98
2022-07-29T11:34:45.390Z,33.26
2022-07-29T11:37:17.712Z,33.13
2022-07-29T11:40:14.217Z,32.82
2022-07-29T11:42:53.881Z,32.99
2022-07-29T11:45:43.004Z,33.36
2022-07-29T11:48:32.143Z,32.72
2022-07-29T11:51:09.490Z,32.84
2022-07-29T11:53:44.182Z,32.23
2022-07-29T11:56:22.223Z,32.39
2022-07-29T11:59:15.091Z,32.37
2022-07-29T12:02:36.458Z,33.19
2022-07-29T12:05:11.015Z,32.14
2022-07-29T12:07:46.032Z,32.48
2022-07-29T12:10:30.710Z,32.08
2022-07-29T12:13:05.385Z,32.22
2022-07-29T12:15:45.698Z,31.94
2022-07-29T12:18:25.887Z,31.99
2022-07-29T12:21:09.746Z,32.80
2022-07-29T12:23:43.108Z,32.98
2022-07-29T12:26:25.380Z,32.29
2022-07-29T12:29:02.480Z,32.45
2022-07-29T12:31:41.887Z,33.75
2022-07-29T12:36:57.531Z,33.49
2022-07-29T12:39:33.410Z,33.86
2022-07-29T12:42:14.917Z,34.19
2022-07-29T12:44:54.955Z,34.35
2022-07-29T12:47:28.082Z,33.94
2022-07-29T12:50:24.512Z,34.56
2022-07-29T12:53:19.858Z,34.22
2022-07-29T12:56:07.955Z,33.74
2022-07-29T12:58:51.334Z,35.04
2022-07-29T13:01:37.554Z,35.04
2022-07-29T13:04:15.103Z,34.75
2022-07-29T13:06:53.554Z,33.47
2022-07-29T13:09:31.368Z,34.46
2022-07-29T13:12:20.140Z,34.79
2022-07-29T13:14:58.765Z,34.56
2022-07-29T13:17:34.849Z,34.51
2022-07-29T13:20:17.300Z,35.70
2022-07-29T13:22:59.465Z,35.72
2022-07-29T13:25:38.633Z,36.14
2022-07-29T13:28:10.906Z,35.89
2022-07-29T13:30:45.753Z,35.62
2022-07-29T13:33:23.457Z,36.40
2022-07-29T13:35:57.593Z,36.30
2022-07-29T13:38:31.323Z,35.66
2022-07-29T13:41:03.759Z,35.58
2022-07-29T13:43:39.542Z,36.03
2022-07-29T13:46:13.388Z,34.75
2022-07-29T13:48:47.771Z,33.97
2022-07-29T13:51:20.162Z,33.61
2022-07-29T13:53:59.383Z,32.90
2022-07-29T13:56:30.061Z,33.34
2022-07-29T13:59:12.974Z,34.32
2022-07-29T14:01:45.759Z,34.07
2022-07-29T14:04:21.078Z,34.66
2022-07-29T14:06:51.918Z,34.65
2022-07-29T14:09:25.775Z,35.71
2022-07-29T14:11:55.736Z,35.98
2022-07-29T14:14:31.500Z,36.71
2022-07-29T14:17:12.367Z,36.28
2022-07-29T14:19:48.126Z,39.07
2022-07-29T14:22:30.132Z,40.27
2022-07-29T14:25:14.430Z,41.19
2022-07-29T14:27:50.296Z,40.91
2022-07-29T14:30:21.096Z,37.89
2022-07-29T14:33:00.804Z,35.80
2022-07-29T14:35:34.713Z,35.11
2022-07-29T14:38:11.952Z,36.26
2022-07-29T14:40:50.936Z,39.81
2022-07-29T14:43:25.192Z,39.41
2022-07-29T14:46:01.976Z,35.56
2022-07-29T14:48:38.914Z,35.54
2022-07-29T14:51:22.010Z,34.85
2022-07-29T14:53:52.690Z,34.53
2022-07-29T14:56:37.510Z,33.95
2022-07-29T14:59:12.159Z,33.74
2022-07-29T15:01:46.537Z,33.25
2022-07-29T15:04:17.923Z,33.50
2022-07-29T15:06:57.978Z,33.17
2022-07-29T15:09:36.299Z,32.79
2022-07-29T15:12:12.639Z,32.56
2022-07-29T15:14:46.560Z,33.50
2022-07-29T15:17:19.876Z,36.92
2022-07-29T15:19:54.891Z,37.41
2022-07-29T15:22:38.924Z,37.24
2022-07-29T15:25:17.246Z,38.50
2022-07-29T15:27:48.919Z,36.85
2022-07-29T15:30:34.576Z,36.30
2022-07-29T15:33:05.912Z,36.29
2022-07-29T15:35:45.021Z,37.90
2022-07-29T15:38:28.594Z,37.41
2022-07-29T15:41:07.756Z,39.24
2022-07-29T15:43:43.719Z,39.17
2022-07-29T15:46:45.698Z,39.01
2022-07-29T15:49:16.224Z,37.27
2022-07-29T15:51:47.502Z,37.50
2022-07-29T15:54:18.100Z,37.57
2022-07-29T15:56:55.763Z,37.49
2022-07-29T15:59:26.744Z,36.90
2022-07-29T16:02:08.841Z,36.38
2022-07-29T16:04:43.352Z,36.67
2022-07-29T16:07:14.453Z,36.36
2022-07-29T16:09:57.015Z,34.85
2022-07-29T16:12:29.739Z,34.61
2022-07-29T16:15:03.877Z,34.60
2022-07-29T16:17:38.378Z,33.86
2022-07-29T16:20:09.373Z,33.44
2022-07-29T16:22:46.337Z,33.14
2022-07-29T16:25:17.311Z,33.03
2022-07-29T16:27:58.109Z,32.54
2022-07-29T16:30:45.908Z,32.56
2022-07-29T16:33:25.231Z,32.23
2022-07-29T16:35:57.780Z,32.26
2022-07-29T16:41:22.279Z,31.47
2022-07-29T16:43:59.997Z,31.43
2022-07-29T16:46:31.080Z,31.02
2022-07-29T16:49:06.318Z,30.99
2022-07-29T16:51:52.152Z,31.10
2022-07-29T16:54:29.942Z,30.77
2022-07-29T16:57:05.913Z,30.76
2022-07-29T16:59:45.437Z,30.61
2022-07-29T17:02:30.682Z,30.45
2022-07-29T17:05:05.165Z,30.50
2022-07-29T17:07:47.293Z,30.51
2022-07-29T17:10:19.233Z,30.23
2022-07-29T17:12:51.912Z,30.09
2022-07-29T17:15:27.416Z,29.99
2022-07-29T17:18:13.088Z,30.00
2022-07-29T17:20:53.807Z,29.99
2022-07-29T17:23:31.151Z,29.99
2022-07-29T17:26:05.454Z,29.92
2022-07-29T17:28:37.393Z,29.94
2022-07-29T17:31:22.463Z,29.81
2022-07-29T17:33:59.986Z,29.56
2022-07-29T17:36:43.419Z,29.57
2022-07-29T17:39:17.168Z,29.42
2022-07-29T17:41:53.826Z,29.48
2022-07-29T17:44:32.496Z,29.36
2022-07-29T17:47:18.781Z,29.21
2022-07-29T17:49:57.082Z,29.13
2022-07-29T17:52:28.154Z,29.12
2022-07-29T17:55:06.744Z,29.00
2022-07-29T17:57:39.188Z,29.05
2022-07-29T18:00:13.526Z,28.93
2022-07-29T18:02:46.580Z,28.62
2022-07-29T18:05:21.590Z,28.65
2022-07-29T18:07:53.193Z,28.53
2022-07-29T18:10:28.236Z,28.46
2022-07-29T18:13:00.392Z,28.47
2022-07-29T18:15:41.865Z,28.37
2022-07-29T18:18:11.432Z,27.57
2022-07-29T18:20:47.900Z,27.57
2022-07-29T18:23:19.098Z,27.67
2022-07-29T18:26:02.737Z,27.56
2022-07-29T18:28:42.137Z,27.11
2022-07-29T18:31:16.723Z,26.53
2022-07-29T18:34:00.225Z,26.52
2022-07-29T18:36:50.448Z,26.51
2022-07-29T18:39:28.550Z,26.71
2022-07-29T18:42:17.070Z,26.71
2022-07-29T18:44:55.917Z,26.80
2022-07-29T18:47:31.999Z,26.61
2022-07-29T18:50:03.443Z,26.04
2022-07-29T18:52:36.407Z,25.82
2022-07-29T18:55:06.759Z,25.93
2022-07-29T18:57:56.251Z,25.78
2022-07-29T19:00:29.095Z,25.51
2022-07-29T19:03:03.735Z,25.23
2022-07-29T19:05:43.418Z,25.20
2022-07-29T19:08:17.144Z,25.42
2022-07-29T19:10:52.023Z,25.66
2022-07-29T19:13:20.190Z,25.57
2022-07-29T19:15:51.450Z,25.27
2022-07-29T19:18:19.634Z,25.33
2022-07-29T19:20:56.557Z,25.25
2022-07-29T19:24:01.684Z,24.95
2022-07-29T19:26:29.996Z,25.04
2022-07-29T19:29:13.921Z,25.02
2022-07-29T19:31:53.718Z,24.71
2022-07-29T19:34:25.546Z,24.75
2022-07-29T19:36:55.155Z,24.51
2022-07-29T19:39:37.695Z,24.35
2022-07-29T19:42:13.595Z,24.09
2022-07-29T19:47:24.835Z,23.88
2022-07-29T19:49:55.653Z,23.71
2022-07-29T19:52:31.289Z,23.67
2022-07-29T19:55:05.229Z,23.92
2022-07-29T19:57:45.457Z,23.93
2022-07-29T20:00:29.503Z,23.83
2022-07-29T20:03:04.466Z,23.87
2022-07-29T20:05:41.926Z,23.83
2022-07-29T20:08:37.293Z,23.83
2022-07-29T20:11:11.145Z,23.89
2022-07-29T20:13:44.972Z,23.95
2022-07-29T20:16:15.680Z,23.80
2022-07-29T20:18:43.755Z,23.97
2022-07-29T20:21:14.463Z,23.91
2022-07-29T20:23:52.118Z,23.94
2022-07-29T20:26:23.689Z,23.98
2022-07-29T20:29:09.069Z,23.88
2022-07-29T20:31:53.513Z,23.97
2022-07-29T20:34:34.531Z,24.00
2022-07-29T20:37:05.517Z,23.76
2022-07-29T20:39:43.904Z,23.65
2022-07-29T20:42:20.194Z,23.66
2022-07-29T20:44:50.981Z,23.83
2022-07-29T20:47:34.107Z,23.79
2022-07-29T20:50:13.746Z,23.88
2022-07-29T20:52:44.377Z,23.78
2022-07-29T20:55:20.013Z,23.50
2022-07-29T20:57:50.802Z,23.50
2022-07-29T21:00:28.924Z,23.44
2022-07-29T21:02:59.904Z,23.53
2022-07-29T21:05:35.163Z,23.42
2022-07-29T21:08:11.413Z,23.24
2022-07-29T21:10:45.774Z,23.43
2022-07-29T21:13:19.380Z,23.42
2022-07-29T21:15:57.002Z,23.39
2022-07-29T21:18:40.215Z,23.46
2022-07-29T21:21:15.918Z,23.47
2022-07-29T21:23:48.045Z,23.36
2022-07-29T21:26:20.287Z,23.46
2022-07-29T21:28:50.495Z,23.61
2022-07-29T21:31:22.707Z,23.49
2022-07-29T21:33:58.367Z,23.32
2022-07-29T21:36:58.514Z,23.33
2022-07-29T21:39:26.263Z,23.28
2022-07-29T21:42:04.061Z,23.20
2022-07-29T21:44:40.726Z,23.13
2022-07-29T21:47:12.106Z,23.26
2022-07-29T21:49:44.855Z,23.30
2022-07-29T21:52:20.739Z,23.42
2022-07-29T21:54:52.457Z,23.32
2022-07-29T21:57:31.968Z,23.18
2022-07-29T22:00:03.203Z,23.06
2022-07-29T22:02:47.265Z,22.93
2022-07-29T22:05:20.064Z,22.94
2022-07-29T22:07:56.670Z,22.87
2022-07-29T22:10:37.900Z,23.11
2022-07-29T22:13:10.402Z,23.20
2022-07-29T22:15:56.818Z,23.13
2022-07-29T22:18:27.602Z,23.23
2022-07-29T22:20:56.814Z,23.27
2022-07-29T22:23:32.919Z,23.06
2022-07-29T22:26:07.213Z,22.91
2022-07-29T22:28:36.707Z,23.10
2022-07-29T22:31:08.326Z,23.10
2022-07-29T22:33:39.104Z,22.99
2022-07-29T22:36:15.650Z,23.06
2022-07-29T22:38:51.858Z,22.82
2022-07-29T22:41:23.989Z,22.63
2022-07-29T22:44:04.559Z,22.64
2022-07-29T22:46:41.575Z,22.50
2022-07-29T22:49:13.552Z,22.55
2022-07-29T22:51:47.411Z,22.64
2022-07-29T22:54:19.260Z,22.36
2022-07-29T22:56:53.069Z,22.01
2022-07-29T22:59:23.662Z,22.47
2022-07-29T23:02:00.187Z,22.41
2022-07-29T23:04:36.006Z,22.52
2022-07-29T23:07:09.550Z,22.72
2022-07-29T23:09:48.372Z,22.80
2022-07-29T23:12:30.041Z,22.83
2022-07-29T23:15:06.167Z,22.94
2022-07-29T23:17:41.111Z,22.84
2022-07-29T23:20:25.126Z,22.57
2022-07-29T23:23:00.269Z,22.50
2022-07-29T23:25:37.090Z,22.58
2022-07-29T23:28:11.498Z,22.78
2022-07-29T23:30:40.908Z,22.73
2022-07-29T23:33:12.747Z,22.82
2022-07-29T23:35:45.868Z,22.73
2022-07-29T23:38:19.821Z,22.63
2022-07-29T23:40:50.473Z,22.42
2022-07-29T23:43:20.842Z,22.29
2022-07-29T23:45:51.574Z,22.20
2022-07-29T23:48:22.651Z,22.31
2022-07-29T23:51:06.906Z,22.37
2022-07-29T23:53:53.676Z,22.47
2022-07-29T23:56:33.027Z,22.52
2022-07-29T23:59:05.832Z,22.49
